createdAt,value
2022-09-07T00:00:39.576Z,99.90
2022-09-07T00:03:06.926Z,99.90
2022-09-07T00:05:34.201Z,99.90
2022-09-07T00:08:01.211Z,99.90
2022-09-07T00:10:27.891Z,99.90
2022-09-07T00:12:54.494Z,99.90
2022-09-07T00:15:21.131Z,99.90
2022-09-07T00:17:47.756Z,99.90
2022-09-07T00:20:14.347Z,99.90
2022-09-07T00:22:41.052Z,99.90
2022-09-07T00:25:08.203Z,99.90
2022-09-07T00:27:34.804Z,99.90
2022-09-07T00:30:01.423Z,99.90
2022-09-07T00:32:28.014Z,99.90
2022-09-07T00:34:54.633Z,99.90
2022-09-07T00:37:21.247Z,99.90
2022-09-07T00:39:47.937Z,99.90
2022-09-07T00:42:14.936Z,99.90
2022-09-07T00:44:44.347Z,99.90
2022-09-07T00:47:10.891Z,99.90
2022-09-07T00:49:39.390Z,99.90
2022-09-07T00:52:08.133Z,99.90
2022-09-07T00:54:39.983Z,99.90
2022-09-07T00:57:07.328Z,99.90
2022-09-07T00:59:42.103Z,99.90
2022-09-07T01:02:09.311Z,99.90
2022-09-07T01:04:36.303Z,99.90
2022-09-07T01:07:04.088Z,99.90
2022-09-07T01:09:31.330Z,99.90
2022-09-07T01:11:59.830Z,99.90
2022-09-07T01:14:34.393Z,99.90
2022-09-07T01:17:13.184Z,99.90
2022-09-07T01:20:04.323Z,99.90
2022-09-07T01:23:08.267Z,99.90
2022-09-07T01:25:43.999Z,99.90
2022-09-07T01:28:16.039Z,99.90
2022-09-07T01:30:54.019Z,99.90
2022-09-07T01:33:33.495Z,99.90
2022-09-07T01:36:10.601Z,99.90
2022-09-07T01:38:45.935Z,99.90
2022-09-07T01:41:38.847Z,99.90
2022-09-07T01:44:19.443Z,99.90
2022-09-07T01:46:54.297Z,99.90
2022-09-07T01:49:26.330Z,99.90
2022-09-07T01:52:00.849Z,99.90
2022-09-07T01:54:32.771Z,99.90
2022-09-07T01:57:04.713Z,99.90
2022-09-07T01:59:41.508Z,99.90
2022-09-07T02:02:13.645Z,99.90
2022-09-07T02:04:59.143Z,99.90
2022-09-07T02:07:39.257Z,99.90
2022-09-07T02:10:49.267Z,99.90
2022-09-07T02:13:22.979Z,99.90
2022-09-07T02:16:07.730Z,99.90
2022-09-07T02:18:54.575Z,99.90
2022-09-07T02:21:28.205Z,99.90
2022-09-07T02:24:00.812Z,99.90
2022-09-07T02:26:29.034Z,99.90
2022-09-07T02:28:56.705Z,99.90
2022-09-07T02:31:23.599Z,99.90
2022-09-07T02:33:50.301Z,99.90
2022-09-07T02:36:19.874Z,99.90
2022-09-07T02:38:46.449Z,99.90
2022-09-07T02:41:35.305Z,99.90
2022-09-07T02:44:06.150Z,99.90
2022-09-07T02:46:55.219Z,99.90
2022-09-07T02:49:33.591Z,99.90
2022-09-07T02:52:39.221Z,99.90
2022-09-07T02:55:24.283Z,99.90
2022-09-07T02:58:06.834Z,99.90
2022-09-07T03:00:37.775Z,99.90
2022-09-07T03:03:12.923Z,99.90
2022-09-07T03:05:49.536Z,99.90
2022-09-07T03:08:24.583Z,99.90
2022-09-07T03:10:52.375Z,99.90
2022-09-07T03:13:29.347Z,99.90
2022-09-07T03:15:56.925Z,99.90
2022-09-07T03:18:25.622Z,99.90
2022-09-07T03:20:52.677Z,99.90
2022-09-07T03:23:19.453Z,99.90
2022-09-07T03:25:47.811Z,99.90
2022-09-07T03:28:14.857Z,99.90
2022-09-07T03:30:43.089Z,99.90
2022-09-07T03:33:10.593Z,99.90
2022-09-07T03:35:38.047Z,99.90
2022-09-07T03:38:04.627Z,99.90
2022-09-07T03:40:31.262Z,99.90
2022-09-07T03:42:57.850Z,99.90
2022-09-07T03:45:24.453Z,99.90
2022-09-07T03:47:51.107Z,99.90
2022-09-07T03:50:17.974Z,99.90
2022-09-07T03:52:44.763Z,99.90
2022-09-07T03:55:11.343Z,99.90
2022-09-07T03:57:37.960Z,99.90
2022-09-07T04:00:05.487Z,99.90
2022-09-07T04:02:32.152Z,99.90
2022-09-07T04:04:58.806Z,99.90
2022-09-07T04:07:25.444Z,99.90
2022-09-07T04:09:52.059Z,99.90
2022-09-07T04:12:18.665Z,99.90
2022-09-07T04:14:45.267Z,99.90
2022-09-07T04:17:11.933Z,99.90
2022-09-07T04:19:38.605Z,99.90
2022-09-07T04:22:05.230Z,99.90
2022-09-07T04:24:31.915Z,99.90
2022-09-07T04:26:58.570Z,99.90
2022-09-07T04:29:25.196Z,99.90
2022-09-07T04:31:51.799Z,99.90
2022-09-07T04:34:18.522Z,99.90
2022-09-07T04:36:45.101Z,99.90
2022-09-07T04:39:11.796Z,99.90
2022-09-07T04:41:38.485Z,99.90
2022-09-07T04:44:05.228Z,99.90
2022-09-07T04:46:34.403Z,99.90
2022-09-07T04:49:07.669Z,99.90
2022-09-07T04:51:34.804Z,99.90
2022-09-07T04:54:02.517Z,99.90
2022-09-07T04:56:30.229Z,99.90
2022-09-07T04:58:56.954Z,99.90
2022-09-07T05:01:24.839Z,99.90
2022-09-07T05:03:51.853Z,99.90
2022-09-07T05:06:20.057Z,99.90
2022-09-07T05:08:49.733Z,99.90
2022-09-07T05:11:17.575Z,99.90
2022-09-07T05:13:44.562Z,99.90
2022-09-07T05:16:12.639Z,99.90
2022-09-07T05:18:39.305Z,99.90
2022-09-07T05:21:15.127Z,99.90
2022-09-07T05:23:42.499Z,99.90
2022-09-07T05:26:09.870Z,99.90
2022-09-07T05:28:37.195Z,99.90
2022-09-07T05:36:38.416Z,99.90
2022-09-07T05:39:06.591Z,99.90
2022-09-07T05:41:33.479Z,99.90
2022-09-07T05:46:46.891Z,99.90
2022-09-07T05:49:13.538Z,99.90
2022-09-07T05:51:40.137Z,99.90
2022-09-07T05:54:06.724Z,99.90
2022-09-07T05:56:36.551Z,99.90
2022-09-07T05:59:03.761Z,99.90
2022-09-07T06:01:30.877Z,99.90
2022-09-07T06:03:57.542Z,99.90
2022-09-07T06:06:24.307Z,99.90
2022-09-07T06:08:53.535Z,99.90
2022-09-07T06:11:22.502Z,99.90
2022-09-07T06:13:49.737Z,99.90
2022-09-07T06:16:17.724Z,99.90
2022-09-07T06:18:46.582Z,99.90
2022-09-07T06:21:18.439Z,99.90
2022-09-07T06:23:46.779Z,99.90
2022-09-07T06:26:14.410Z,99.90
2022-09-07T06:28:43.575Z,99.90
2022-09-07T06:31:15.909Z,99.90
2022-09-07T06:33:43.601Z,99.90
2022-09-07T06:36:13.601Z,99.90
2022-09-07T06:38:40.692Z,99.90
2022-09-07T06:44:01.552Z,99.90
2022-09-07T06:49:14.806Z,99.90
2022-09-07T06:51:41.446Z,99.90
2022-09-07T06:56:56.097Z,99.90
2022-09-07T06:59:22.701Z,99.90
2022-09-07T07:01:49.319Z,99.90
2022-09-07T07:04:15.919Z,99.90
2022-09-07T07:06:42.597Z,99.90
2022-09-07T07:09:12.097Z,99.90
2022-09-07T07:11:38.689Z,99.90
2022-09-07T07:14:05.354Z,99.90
2022-09-07T07:16:32.087Z,99.90
2022-09-07T07:18:58.729Z,99.90
2022-09-07T07:21:25.379Z,99.90
2022-09-07T07:23:53.197Z,99.90
2022-09-07T07:26:24.375Z,99.90
2022-09-07T07:29:07.073Z,99.90
2022-09-07T07:31:33.749Z,99.90
2022-09-07T07:34:00.436Z,99.90
2022-09-07T07:36:27.784Z,99.90
2022-09-07T07:44:16.947Z,99.90
2022-09-07T07:46:43.581Z,99.90
2022-09-07T07:49:10.193Z,99.90
2022-09-07T07:54:23.316Z,99.90
2022-09-07T07:56:49.880Z,99.90
2022-09-07T07:59:16.504Z,99.90
2022-09-07T08:01:43.174Z,99.90
2022-09-07T08:04:09.886Z,99.90
2022-09-07T08:06:36.506Z,99.90
2022-09-07T08:09:03.115Z,99.90
2022-09-07T08:11:29.691Z,99.90
2022-09-07T08:13:56.259Z,99.90
2022-09-07T08:16:22.836Z,99.90
2022-09-07T08:18:49.422Z,99.90
2022-09-07T08:21:16.678Z,99.90
2022-09-07T08:23:43.544Z,99.90
2022-09-07T08:26:10.735Z,99.90
2022-09-07T08:28:39.654Z,99.90
2022-09-07T08:31:07.933Z,99.90
2022-09-07T08:33:36.107Z,99.90
2022-09-07T08:36:05.197Z,99.90
2022-09-07T08:38:33.291Z,99.90
2022-09-07T08:41:01.337Z,99.90
2022-09-07T08:43:39.521Z,99.90
2022-09-07T08:46:29.021Z,99.90
2022-09-07T08:48:58.673Z,99.90
2022-09-07T08:51:48.906Z,99.90
2022-09-07T08:54:16.653Z,99.90
2022-09-07T08:59:48.809Z,99.90
2022-09-07T09:02:38.365Z,99.90
2022-09-07T09:05:20.862Z,99.90
2022-09-07T09:08:11.920Z,99.90
2022-09-07T09:11:01.465Z,99.90
2022-09-07T09:13:43.938Z,99.90
2022-09-07T09:16:18.553Z,99.90
2022-09-07T09:19:26.688Z,99.90
2022-09-07T09:22:20.423Z,99.90
2022-09-07T09:24:49.166Z,99.90
2022-09-07T09:27:16.197Z,99.90
2022-09-07T09:29:42.826Z,99.90
2022-09-07T09:32:34.091Z,99.90
2022-09-07T09:35:04.479Z,99.90
2022-09-07T09:37:39.089Z,99.90
2022-09-07T09:40:06.604Z,99.90
2022-09-07T09:42:35.101Z,99.90
2022-09-07T09:45:23.055Z,99.90
2022-09-07T09:47:54.725Z,99.90
2022-09-07T09:53:31.240Z,99.90
2022-09-07T09:55:58.790Z,99.90
2022-09-07T10:01:27.180Z,99.90
2022-09-07T10:06:26.278Z,99.90
2022-09-07T10:08:57.212Z,99.90
2022-09-07T10:12:08.494Z,99.90
2022-09-07T10:14:44.383Z,99.90
2022-09-07T10:17:38.748Z,99.90
2022-09-07T10:20:14.369Z,99.90
2022-09-07T10:22:43.835Z,99.90
2022-09-07T10:25:35.197Z,99.90
2022-09-07T10:28:05.877Z,99.90
2022-09-07T10:30:56.433Z,99.90
2022-09-07T10:33:40.450Z,99.90
2022-09-07T10:36:12.175Z,99.90
2022-09-07T10:38:45.970Z,99.90
2022-09-07T10:41:13.198Z,99.90
2022-09-07T10:43:50.962Z,99.90
2022-09-07T10:47:03.518Z,99.90
2022-09-07T10:50:21.959Z,99.90
2022-09-07T10:52:49.202Z,99.90
2022-09-07T10:55:32.379Z,99.90
2022-09-07T10:59:01.402Z,99.90
2022-09-07T11:01:30.698Z,99.90
2022-09-07T11:04:09.391Z,99.90
2022-09-07T11:06:41.095Z,99.90
2022-09-07T11:09:34.135Z,99.90
2022-09-07T11:12:06.635Z,99.90
2022-09-07T11:14:43.294Z,99.90
2022-09-07T11:17:16.794Z,99.90
2022-09-07T11:19:50.004Z,99.90
2022-09-07T11:22:44.230Z,99.90
2022-09-07T11:25:30.553Z,99.90
2022-09-07T11:28:24.011Z,99.90
2022-09-07T11:31:00.360Z,99.90
2022-09-07T11:33:34.778Z,99.90
2022-09-07T11:36:11.810Z,99.90
2022-09-07T11:38:54.133Z,99.90
2022-09-07T11:41:36.332Z,99.90
2022-09-07T11:44:17.244Z,99.90
2022-09-07T11:46:47.897Z,99.90
2022-09-07T11:49:19.350Z,99.90
2022-09-07T11:52:05.759Z,99.90
2022-09-07T11:54:54.630Z,99.90
2022-09-07T11:57:31.275Z,99.90
2022-09-07T12:00:13.688Z,99.90
2022-09-07T12:03:00.324Z,99.90
2022-09-07T12:05:36.825Z,99.90
2022-09-07T12:08:15.009Z,99.90
2022-09-07T12:10:53.399Z,99.90
2022-09-07T12:13:38.145Z,99.90
2022-09-07T12:16:15.167Z,99.90
2022-09-07T12:19:09.515Z,99.90
2022-09-07T12:21:52.349Z,99.90
2022-09-07T12:24:43.254Z,99.90
2022-09-07T12:27:19.875Z,99.90
2022-09-07T12:29:47.477Z,99.90
2022-09-07T12:32:57.447Z,99.90
2022-09-07T12:35:30.558Z,99.90
2022-09-07T12:37:59.174Z,99.90
2022-09-07T12:40:28.724Z,99.90
2022-09-07T12:43:13.476Z,99.90
2022-09-07T12:45:40.001Z,99.90
2022-09-07T12:48:15.787Z,99.90
2022-09-07T12:51:07.166Z,99.90
2022-09-07T12:54:01.562Z,99.90
2022-09-07T12:59:47.401Z,99.90
2022-09-07T13:02:46.197Z,99.90
2022-09-07T13:06:03.609Z,99.90
2022-09-07T13:08:54.199Z,99.90
2022-09-07T13:11:20.712Z,96.50
2022-09-07T13:14:09.545Z,96.10
2022-09-07T13:19:46.853Z,94.50
2022-09-07T13:22:32.238Z,92.60
2022-09-07T13:25:22.699Z,95.70
2022-09-07T13:28:01.958Z,96.60
2022-09-07T13:30:53.543Z,97.50
2022-09-07T13:33:43.168Z,98.00
2022-09-07T13:36:31.884Z,98.10
2022-09-07T13:38:59.090Z,97.30
2022-09-07T13:41:34.814Z,96.80
2022-09-07T13:44:03.658Z,98.40
2022-09-07T13:46:40.582Z,98.30
2022-09-07T13:49:27.834Z,98.80
2022-09-07T13:52:25.429Z,98.20
2022-09-07T13:55:25.970Z,98.40
2022-09-07T13:58:14.036Z,98.50
2022-09-07T14:00:55.451Z,98.60
2022-09-07T14:03:25.380Z,97.20
2022-09-07T14:06:14.292Z,97.70
2022-09-07T14:08:40.994Z,98.80
2022-09-07T14:11:22.558Z,99.90
2022-09-07T14:14:12.911Z,99.80
2022-09-07T14:16:42.451Z,99.60
2022-09-07T14:19:16.998Z,98.90
2022-09-07T14:21:43.923Z,98.70
2022-09-07T14:24:30.505Z,99.90
2022-09-07T14:26:57.661Z,99.00
2022-09-07T14:29:27.589Z,98.60
2022-09-07T14:31:54.493Z,98.80
2022-09-07T14:34:24.467Z,99.90
2022-09-07T14:36:52.240Z,99.70
2022-09-07T14:39:22.188Z,99.90
2022-09-07T14:41:49.422Z,99.90
2022-09-07T14:44:39.756Z,99.90
2022-09-07T14:47:21.491Z,99.90
2022-09-07T14:49:52.744Z,99.80
2022-09-07T14:52:26.911Z,99.70
2022-09-07T14:54:53.414Z,98.20
2022-09-07T14:57:40.229Z,98.60
2022-09-07T15:00:46.520Z,98.80
2022-09-07T15:03:32.806Z,98.70
2022-09-07T15:06:01.555Z,97.30
2022-09-07T15:08:47.391Z,99.10
2022-09-07T15:11:35.409Z,99.50
2022-09-07T15:14:17.234Z,99.20
2022-09-07T15:19:42.983Z,99.90
2022-09-07T15:22:11.478Z,99.90
2022-09-07T15:24:38.040Z,99.90
2022-09-07T15:27:18.650Z,99.90
2022-09-07T15:29:45.223Z,99.90
2022-09-07T15:32:12.015Z,99.90
2022-09-07T15:34:38.594Z,99.00
2022-09-07T15:38:01.149Z,99.90
2022-09-07T15:39:52.821Z,99.90
2022-09-07T15:45:06.983Z,97.60
2022-09-07T15:47:51.986Z,98.40
2022-09-07T15:50:19.638Z,98.30
2022-09-07T15:52:46.804Z,98.40
2022-09-07T15:55:13.697Z,99.90
2022-09-07T15:58:09.036Z,99.90
2022-09-07T16:00:26.898Z,99.90
2022-09-07T16:03:09.211Z,99.90
2022-09-07T16:05:40.718Z,99.90
2022-09-07T16:10:55.351Z,99.90
2022-09-07T16:13:22.789Z,99.90
2022-09-07T16:15:49.583Z,99.90
2022-09-07T16:18:17.947Z,99.90
2022-09-07T16:20:44.764Z,99.90
2022-09-07T16:23:13.913Z,99.90
2022-09-07T16:25:41.694Z,99.90
2022-09-07T16:28:08.560Z,99.90
2022-09-07T16:30:39.117Z,99.90
2022-09-07T16:33:05.889Z,99.90
2022-09-07T16:35:32.505Z,99.90
2022-09-07T16:40:45.696Z,99.90
2022-09-07T16:43:12.264Z,99.90
2022-09-07T16:48:25.373Z,99.90
2022-09-07T16:50:58.706Z,99.90
2022-09-07T16:53:25.476Z,99.90
2022-09-07T16:55:52.034Z,99.90
2022-09-07T17:01:06.952Z,99.90
2022-09-07T17:03:34.032Z,99.90
2022-09-07T17:06:01.487Z,99.90
2022-09-07T17:08:28.651Z,99.90
2022-09-07T17:11:03.541Z,99.90
2022-09-07T17:13:34.542Z,99.90
2022-09-07T17:16:13.796Z,99.90
2022-09-07T17:21:46.450Z,99.90
2022-09-07T17:24:13.110Z,99.90
2022-09-07T17:26:42.280Z,99.90
2022-09-07T17:29:09.510Z,99.90
2022-09-07T17:34:24.018Z,99.90
2022-09-07T17:36:51.357Z,99.90
2022-09-07T17:39:19.349Z,99.90
2022-09-07T17:41:49.613Z,99.90
2022-09-07T17:44:16.344Z,99.90
2022-09-07T17:46:42.996Z,99.90
2022-09-07T17:49:10.626Z,99.90
2022-09-07T17:51:37.225Z,99.90
2022-09-07T17:54:12.953Z,99.90
2022-09-07T17:56:40.754Z,99.90
2022-09-07T18:01:54.763Z,99.90
2022-09-07T18:04:22.311Z,99.90
2022-09-07T18:06:48.929Z,99.90
2022-09-07T18:09:16.025Z,99.90
2022-09-07T18:11:47.273Z,99.90
2022-09-07T18:14:15.501Z,99.90
2022-09-07T18:16:44.447Z,99.90
2022-09-07T18:19:11.769Z,99.90
2022-09-07T18:21:40.810Z,99.90
2022-09-07T18:24:24.028Z,99.90
2022-09-07T18:26:52.873Z,99.90
2022-09-07T18:29:30.077Z,99.90
2022-09-07T18:31:58.898Z,99.90
2022-09-07T18:34:25.899Z,99.90
2022-09-07T18:36:52.469Z,99.90
2022-09-07T18:39:19.027Z,99.90
2022-09-07T18:41:45.581Z,99.90
2022-09-07T18:46:58.907Z,99.90
2022-09-07T18:49:25.571Z,99.90
2022-09-07T18:54:40.000Z,99.90
2022-09-07T18:57:07.090Z,99.90
2022-09-07T18:59:33.926Z,99.90
2022-09-07T19:02:04.268Z,99.90
2022-09-07T19:07:20.376Z,99.90
2022-09-07T19:09:46.964Z,99.90
2022-09-07T19:12:13.582Z,99.90
2022-09-07T19:14:40.155Z,99.90
2022-09-07T19:17:06.711Z,99.90
2022-09-07T19:19:33.303Z,99.90
2022-09-07T19:22:00.354Z,99.90
2022-09-07T19:24:27.095Z,99.90
2022-09-07T19:26:58.080Z,99.90
2022-09-07T19:29:27.065Z,99.90
2022-09-07T19:31:54.087Z,99.90
2022-09-07T19:34:20.683Z,99.90
2022-09-07T19:36:47.247Z,99.90
2022-09-07T19:39:13.895Z,99.90
2022-09-07T19:41:40.448Z,99.90
2022-09-07T19:44:07.877Z,99.90
2022-09-07T19:46:34.438Z,99.90
2022-09-07T19:49:01.034Z,99.90
2022-09-07T19:51:27.613Z,99.90
2022-09-07T19:53:54.647Z,99.90
2022-09-07T19:56:21.187Z,99.90
2022-09-07T19:58:48.714Z,99.90
2022-09-07T20:01:18.293Z,99.90
2022-09-07T20:03:46.945Z,99.90
2022-09-07T20:06:15.699Z,99.90
2022-09-07T20:08:43.311Z,99.90
2022-09-07T20:11:12.117Z,99.90
2022-09-07T20:13:39.764Z,99.90
2022-09-07T20:16:08.611Z,99.90
2022-09-07T20:18:36.349Z,99.90
2022-09-07T20:21:04.986Z,99.90
2022-09-07T20:23:31.639Z,99.90
2022-09-07T20:25:59.950Z,99.90
2022-09-07T20:28:26.864Z,99.90
2022-09-07T20:30:53.445Z,99.90
2022-09-07T20:33:20.003Z,99.90
2022-09-07T20:35:46.555Z,99.90
2022-09-07T20:38:14.101Z,99.90
2022-09-07T20:40:52.382Z,99.90
2022-09-07T20:43:19.003Z,99.90
2022-09-07T20:45:45.649Z,99.90
2022-09-07T20:48:12.557Z,99.90
2022-09-07T20:50:39.575Z,99.90
2022-09-07T20:53:06.434Z,99.90
2022-09-07T20:55:33.398Z,99.90
2022-09-07T20:57:59.977Z,99.90
2022-09-07T21:00:26.580Z,99.90
2022-09-07T21:02:53.154Z,99.90
2022-09-07T21:05:19.704Z,99.90
2022-09-07T21:07:46.265Z,99.90
2022-09-07T21:10:12.820Z,99.90
2022-09-07T21:12:39.380Z,99.90
2022-09-07T21:15:06.430Z,99.90
2022-09-07T21:17:32.998Z,99.90
2022-09-07T21:19:59.922Z,99.90
2022-09-07T21:22:26.466Z,99.90
2022-09-07T21:24:53.009Z,99.90
2022-09-07T21:27:19.549Z,99.90
2022-09-07T21:29:46.099Z,99.90
2022-09-07T21:32:12.646Z,99.90
2022-09-07T21:34:39.202Z,99.90
2022-09-07T21:37:05.796Z,99.90
2022-09-07T21:39:32.413Z,99.90
2022-09-07T21:41:59.130Z,99.90
2022-09-07T21:44:25.681Z,99.90
2022-09-07T21:46:52.282Z,99.90
2022-09-07T21:49:18.895Z,99.90
2022-09-07T21:51:45.456Z,99.90
2022-09-07T21:54:12.006Z,99.90
2022-09-07T21:56:41.991Z,99.90
2022-09-07T21:59:11.066Z,99.90
2022-09-07T22:01:37.699Z,99.90
2022-09-07T22:04:05.174Z,99.90
2022-09-07T22:06:32.716Z,99.90
2022-09-07T22:08:59.915Z,99.90
2022-09-07T22:11:27.596Z,99.90
2022-09-07T22:13:59.598Z,99.90
2022-09-07T22:16:26.238Z,99.90
2022-09-07T22:18:52.947Z,99.90
2022-09-07T22:21:24.599Z,99.90
2022-09-07T22:23:54.734Z,99.90
2022-09-07T22:26:23.423Z,99.90
2022-09-07T22:28:50.822Z,99.90
2022-09-07T22:31:26.241Z,99.90
2022-09-07T22:33:53.757Z,99.90
2022-09-07T22:36:23.357Z,99.90
2022-09-07T22:38:52.789Z,99.90
2022-09-07T22:41:21.827Z,99.90
2022-09-07T22:43:49.330Z,99.90
2022-09-07T22:46:16.428Z,99.90
2022-09-07T22:48:43.955Z,99.90
2022-09-07T22:51:11.669Z,99.90
2022-09-07T22:53:40.799Z,99.90
2022-09-07T22:56:13.650Z,99.90
2022-09-07T22:58:44.708Z,99.90
2022-09-07T23:01:11.371Z,99.90
2022-09-07T23:03:38.223Z,99.90
2022-09-07T23:06:05.109Z,99.90
2022-09-07T23:08:31.676Z,99.90
2022-09-07T23:11:04.856Z,99.90
2022-09-07T23:13:32.566Z,99.90
2022-09-07T23:16:06.492Z,99.90
2022-09-07T23:18:33.572Z,99.90
2022-09-07T23:21:01.240Z,99.90
2022-09-07T23:23:28.523Z,99.90
2022-09-07T23:25:55.425Z,99.90
2022-09-07T23:28:21.953Z,99.90
2022-09-07T23:30:49.930Z,99.90
2022-09-07T23:33:17.112Z,99.90
2022-09-07T23:35:43.986Z,99.90
2022-09-07T23:38:10.547Z,99.90
2022-09-07T23:40:37.094Z,99.90
2022-09-07T23:43:03.647Z,99.90
2022-09-07T23:45:30.200Z,99.90
2022-09-07T23:47:56.757Z,99.90
2022-09-07T23:50:23.305Z,99.90
2022-09-07T23:52:49.827Z,99.90
2022-09-07T23:55:16.395Z,99.90
2022-09-07T23:57:42.941Z,99.90
